LF7329 weather

Altiport de Vaugellaz
Les Chapelles, Rhône Alpes, France

Public forecast

Using degrees Celsius for public forecast. Weather courtesy of forecast.io.

METAR (pilot weather report)

Report is more than 6 hours old.

Closest report is Aosta Airport, 28.7 nm (53.2 km) ENE. Retrieved 2019/07/17 19:50 UTC (6 hours ago):

LIMW 171950Z AUTO VRB02KT 9999 NCD 23/14 Q1013

TAF (pilot weather forecast)

Forecast is more than 6 hours old.

Closest forecast is Annecy-Haute-Savoie-Mont Blanc Airport, 31.9 nm (59.0 km) NW. Retrieved 2019/07/17 15:00 UTC (11 hours ago):

TAF LFLP 171400Z 1715/1815 24008KT CAVOK BECMG 1718/1721 VRB03KT BECMG 1812/1814 24008KT